createdAt,value
2024-02-08T00:01:10.962Z,99026.56
2024-02-08T00:05:14.113Z,99026.06
2024-02-08T00:09:15.880Z,99025.53
2024-02-08T00:13:17.575Z,99024.56
2024-02-08T00:17:19.267Z,99017.06
2024-02-08T00:21:22.457Z,99011.84
2024-02-08T00:25:24.313Z,99023.16
2024-02-08T00:29:26.260Z,99010.00
2024-02-08T00:33:27.950Z,99016.66
2024-02-08T00:37:31.168Z,99021.47
2024-02-08T00:41:33.971Z,99011.50
2024-02-08T00:45:36.111Z,99012.59
2024-02-08T00:49:38.170Z,99006.09
2024-02-08T00:53:41.271Z,99018.09
2024-02-08T00:57:43.014Z,99010.00
2024-02-08T01:01:44.732Z,99002.06
2024-02-08T01:05:46.499Z,99005.06
2024-02-08T01:09:49.510Z,99006.09
2024-02-08T01:13:51.431Z,98989.16
2024-02-08T01:17:53.450Z,98985.53
2024-02-08T01:21:56.246Z,98995.13
2024-02-08T01:25:59.376Z,98986.03
2024-02-08T01:30:01.373Z,99001.25
2024-02-08T01:34:03.493Z,99009.38
2024-02-08T01:38:05.248Z,99004.94
2024-02-08T01:42:12.725Z,99014.56
2024-02-08T01:46:14.487Z,99016.00
2024-02-08T01:50:24.283Z,99013.34
2024-02-08T01:54:26.724Z,99010.13
2024-02-08T01:58:30.765Z,99016.00
2024-02-08T02:02:32.516Z,99018.09
2024-02-08T02:06:35.420Z,99011.38
2024-02-08T02:10:39.139Z,98996.94
2024-02-08T02:14:42.720Z,99006.66
2024-02-08T02:18:44.319Z,99004.34
2024-02-08T02:22:48.542Z,99001.84
2024-02-08T02:26:50.273Z,98999.81
2024-02-08T02:30:52.947Z,98995.31
2024-02-08T02:34:55.134Z,98995.22
2024-02-08T02:38:58.210Z,98993.19
2024-02-08T02:43:00.113Z,98979.78
2024-02-08T02:47:01.755Z,98988.94
2024-02-08T02:51:03.890Z,98965.81
2024-02-08T02:55:07.838Z,98980.13
2024-02-08T02:59:10.516Z,98983.06
2024-02-08T03:03:12.312Z,98982.88
2024-02-08T03:07:13.957Z,98981.50
2024-02-08T03:11:17.181Z,98973.00
2024-02-08T03:15:19.862Z,98973.28
2024-02-08T03:19:23.654Z,98967.38
2024-02-08T03:23:25.985Z,98959.06
2024-02-08T03:27:28.881Z,98956.72
2024-02-08T03:31:30.657Z,98955.72
2024-02-08T03:35:32.310Z,98958.84
2024-02-08T03:39:33.958Z,98947.94
2024-02-08T03:43:37.214Z,98947.19
2024-02-08T03:47:38.999Z,98941.66
2024-02-08T03:51:40.722Z,98930.66
2024-02-08T03:55:42.731Z,98926.53
2024-02-08T03:59:46.679Z,98931.28
2024-02-08T04:03:48.281Z,98938.84
2024-02-08T04:07:50.290Z,98951.09
2024-02-08T04:11:52.039Z,98937.63
2024-02-08T04:15:57.465Z,98937.69
2024-02-08T04:20:00.941Z,98935.97
2024-02-08T04:24:03.649Z,98934.00
2024-02-08T04:28:07.512Z,98932.44
2024-02-08T04:32:12.184Z,98945.69
2024-02-08T04:36:14.984Z,98949.06
2024-02-08T04:40:17.684Z,98949.94
2024-02-08T04:44:19.361Z,98937.78
2024-02-08T04:48:22.484Z,98935.03
2024-02-08T04:52:24.777Z,98938.53
2024-02-08T04:56:26.759Z,98932.00
2024-02-08T05:00:28.560Z,98924.56
2024-02-08T05:04:31.697Z,98911.97
2024-02-08T05:08:33.412Z,98915.47
2024-02-08T05:12:34.966Z,98925.72
2024-02-08T05:16:37.668Z,98919.44
2024-02-08T05:20:41.177Z,98927.56
2024-02-08T05:24:42.940Z,98920.66
2024-02-08T05:28:44.730Z,98928.75
2024-02-08T05:32:46.543Z,98923.19
2024-02-08T05:36:49.628Z,98915.91
2024-02-08T05:40:51.442Z,98889.50
2024-02-08T05:44:53.963Z,98876.13
2024-02-08T05:48:56.657Z,98882.91
2024-02-08T05:52:59.995Z,98881.28
2024-02-08T05:57:02.404Z,98875.06
2024-02-08T06:01:04.901Z,98865.19
2024-02-08T06:05:06.973Z,98858.59
2024-02-08T06:09:10.494Z,98855.16
2024-02-08T06:13:13.465Z,98852.22
2024-02-08T06:17:15.486Z,98852.34
2024-02-08T06:21:17.130Z,98858.16
2024-02-08T06:25:20.365Z,98859.94
2024-02-08T06:29:22.213Z,98862.34
2024-02-08T06:33:23.938Z,98860.00
2024-02-08T06:37:25.786Z,98864.28
2024-02-08T06:41:28.834Z,98869.03
2024-02-08T06:45:30.728Z,98868.22
2024-02-08T06:49:33.550Z,98869.56
2024-02-08T06:53:38.525Z,98857.00
2024-02-08T06:57:41.968Z,98858.75
2024-02-08T07:01:44.388Z,98853.25
2024-02-08T07:05:46.071Z,98854.16
2024-02-08T07:09:47.893Z,98854.88
2024-02-08T07:13:50.988Z,98861.34
2024-02-08T07:17:53.247Z,98853.25
2024-02-08T07:21:55.583Z,98846.09
2024-02-08T07:25:57.559Z,98846.66
2024-02-08T07:30:00.577Z,98838.50
2024-02-08T07:34:02.508Z,98836.66
2024-02-08T07:38:05.946Z,98830.47
2024-02-08T07:42:07.816Z,98826.63
2024-02-08T07:46:10.842Z,98819.97
2024-02-08T07:50:12.756Z,98810.94
2024-02-08T07:54:14.567Z,98817.00
2024-02-08T07:58:16.269Z,98814.09
2024-02-08T08:02:19.323Z,98813.34
2024-02-08T08:06:21.052Z,98807.28
2024-02-08T08:10:22.834Z,98797.56
2024-02-08T08:14:24.837Z,98796.66
2024-02-08T08:18:27.892Z,98788.97
2024-02-08T08:22:29.653Z,98788.06
2024-02-08T08:26:32.378Z,98772.03
2024-02-08T08:30:34.392Z,98783.78
2024-02-08T08:34:37.637Z,98766.91
2024-02-08T08:38:39.436Z,98760.78
2024-02-08T08:42:41.769Z,98756.66
2024-02-08T08:46:44.591Z,98752.09
2024-02-08T08:50:47.691Z,98747.53
2024-02-08T08:54:49.251Z,98735.69
2024-02-08T08:58:51.549Z,98727.19
2024-02-08T09:02:53.396Z,98730.78
2024-02-08T09:06:56.435Z,98707.31
2024-02-08T09:10:58.324Z,98702.94
2024-02-08T09:14:59.937Z,98695.53
2024-02-08T09:19:03.122Z,98683.47
2024-02-08T09:23:07.037Z,98685.72
2024-02-08T09:27:08.637Z,98682.13
2024-02-08T09:31:10.366Z,98679.97
2024-02-08T09:35:12.348Z,98678.25
2024-02-08T09:39:15.524Z,98661.63
2024-02-08T09:43:17.245Z,98649.94
2024-02-08T09:47:20.376Z,98653.31
2024-02-08T09:51:24.480Z,98644.28
2024-02-08T09:55:27.963Z,98629.94
2024-02-08T09:59:30.168Z,98632.63
2024-02-08T10:03:32.067Z,98624.13
2024-02-08T10:07:34.113Z,98620.94
2024-02-08T10:11:39.310Z,98607.72
2024-02-08T10:15:41.197Z,98585.34
2024-02-08T10:19:56.402Z,98581.97
2024-02-08T10:23:59.034Z,98576.91
2024-02-08T10:28:02.060Z,98564.91
2024-02-08T10:32:05.646Z,98567.72
2024-02-08T10:36:08.840Z,98531.28
2024-02-08T10:40:18.221Z,98543.63
2024-02-08T10:44:25.894Z,98542.03
2024-02-08T10:48:30.532Z,98523.25
2024-02-08T10:52:33.784Z,98518.19
2024-02-08T10:56:36.553Z,98503.66
2024-02-08T11:00:42.147Z,98490.31
2024-02-08T11:04:44.824Z,98483.41
2024-02-08T11:08:46.605Z,98473.84
2024-02-08T11:12:52.231Z,98469.13
2024-02-08T11:16:56.157Z,98461.16
2024-02-08T11:21:00.030Z,98451.84
2024-02-08T11:25:03.536Z,98446.88
2024-02-08T11:29:05.765Z,98436.63
2024-02-08T11:33:09.243Z,98419.47
2024-02-08T11:37:14.681Z,98398.81
2024-02-08T11:41:16.758Z,98389.44
2024-02-08T11:45:19.437Z,98378.31
2024-02-08T11:49:22.584Z,98375.06
2024-02-08T11:53:37.122Z,98376.97
2024-02-08T11:58:14.991Z,98372.53
2024-02-08T12:02:24.992Z,98369.63
2024-02-08T12:06:40.522Z,98357.94
2024-02-08T12:10:53.054Z,98361.50
2024-02-08T12:15:02.624Z,98344.44
2024-02-08T12:19:06.452Z,98349.06
2024-02-08T12:23:09.508Z,98329.84
2024-02-08T12:27:16.924Z,98335.88
2024-02-08T12:31:19.900Z,98346.03
2024-02-08T12:35:25.856Z,98310.31
2024-02-08T12:39:29.384Z,98335.31
2024-02-08T12:43:31.591Z,98328.50
2024-02-08T12:47:33.426Z,98303.53
2024-02-08T12:51:36.877Z,98312.81
2024-02-08T12:55:39.948Z,98314.66
2024-02-08T12:59:42.919Z,98286.97
2024-02-08T13:03:44.619Z,98284.69
2024-02-08T13:07:56.656Z,98275.06
2024-02-08T13:12:07.663Z,98265.34
2024-02-08T13:16:09.400Z,98268.16
2024-02-08T13:20:12.012Z,98261.75
2024-02-08T13:24:13.792Z,98263.75
2024-02-08T13:28:16.879Z,98252.56
2024-02-08T13:32:18.452Z,98239.69
2024-02-08T13:36:20.131Z,98245.72
2024-02-08T13:40:24.633Z,98227.38
2024-02-08T13:44:27.807Z,98230.34
2024-02-08T13:48:29.820Z,98225.78
2024-02-08T13:52:31.524Z,98215.75
2024-02-08T13:56:33.253Z,98214.16
2024-02-08T14:00:36.677Z,98194.03
2024-02-08T14:04:38.519Z,98177.19
2024-02-08T14:08:40.141Z,98178.38
2024-02-08T14:12:41.674Z,98170.31
2024-02-08T14:16:44.613Z,98159.38
2024-02-08T14:20:46.663Z,98141.78
2024-02-08T14:24:48.237Z,98133.19
2024-02-08T14:28:49.931Z,98126.53
2024-02-08T14:32:52.994Z,98115.16
2024-02-08T14:36:54.622Z,98104.97
2024-02-08T14:40:56.627Z,98091.44
2024-02-08T14:44:58.321Z,98099.16
2024-02-08T14:49:01.603Z,98078.00
2024-02-08T14:53:07.104Z,98069.69
2024-02-08T14:57:08.854Z,98082.13
2024-02-08T15:01:10.697Z,98067.59
2024-02-08T15:05:13.700Z,98075.25
2024-02-08T15:09:15.373Z,98060.94
2024-02-08T15:13:17.012Z,98062.16
2024-02-08T15:17:18.727Z,98062.81
2024-02-08T15:21:21.692Z,98059.34
2024-02-08T15:25:23.365Z,98051.00
2024-02-08T15:29:25.020Z,98050.28
2024-02-08T15:33:26.973Z,98045.84
2024-02-08T15:37:30.501Z,98043.97
2024-02-08T15:41:32.255Z,98032.59
2024-02-08T15:45:34.183Z,98031.91
2024-02-08T15:49:35.890Z,98024.09
2024-02-08T15:53:44.741Z,98011.50
2024-02-08T15:57:46.781Z,98010.06
2024-02-08T16:01:49.837Z,97995.81
2024-02-08T16:05:51.592Z,98001.41
2024-02-08T16:09:54.589Z,97992.47
2024-02-08T16:13:56.355Z,97991.06
2024-02-08T16:17:58.515Z,97975.28
2024-02-08T16:22:00.315Z,97964.34
2024-02-08T16:26:03.308Z,97972.16
2024-02-08T16:30:06.463Z,97965.50
2024-02-08T16:34:08.209Z,97964.22
2024-02-08T16:38:10.145Z,97969.81
2024-02-08T16:42:13.335Z,97957.81
2024-02-08T16:46:15.108Z,97971.25
2024-02-08T16:50:16.804Z,97973.97
2024-02-08T16:54:18.490Z,97969.00
2024-02-08T16:58:21.819Z,97967.75
2024-02-08T17:02:23.695Z,97970.59
2024-02-08T17:06:25.393Z,97971.88
2024-02-08T17:10:27.427Z,97966.16
2024-02-08T17:14:30.441Z,97969.81
2024-02-08T17:18:32.334Z,97967.88
2024-02-08T17:22:34.208Z,97960.53
2024-02-08T17:26:36.191Z,97961.19
2024-02-08T17:30:39.102Z,97961.31
2024-02-08T17:34:40.961Z,97965.16
2024-02-08T17:38:43.059Z,97963.06
2024-02-08T17:42:44.964Z,97961.13
2024-02-08T17:46:48.586Z,97972.47
2024-02-08T17:50:50.539Z,97971.69
2024-02-08T17:54:52.194Z,97978.28
2024-02-08T17:58:54.181Z,97973.44
2024-02-08T18:02:57.050Z,97977.56
2024-02-08T18:06:59.197Z,97976.47
2024-02-08T18:11:01.078Z,97978.84
2024-02-08T18:15:03.607Z,97978.44
2024-02-08T18:19:06.689Z,97976.66
2024-02-08T18:23:08.442Z,97973.00
2024-02-08T18:27:10.104Z,97978.94
2024-02-08T18:31:11.703Z,97977.31
2024-02-08T18:35:15.356Z,97980.50
2024-02-08T18:39:17.051Z,97978.09
2024-02-08T18:43:18.883Z,97980.50
2024-02-08T18:47:20.789Z,97973.59
2024-02-08T18:51:23.745Z,97973.13
2024-02-08T18:55:25.463Z,97976.66
2024-02-08T18:59:27.096Z,97970.09
2024-02-08T19:03:29.710Z,97966.25
2024-02-08T19:07:33.143Z,97964.34
2024-02-08T19:11:34.869Z,97957.63
2024-02-08T19:15:36.803Z,97947.41
2024-02-08T19:19:38.626Z,97953.19
2024-02-08T19:23:42.617Z,97949.94
2024-02-08T19:27:44.209Z,97949.31
2024-02-08T19:31:45.957Z,97945.66
2024-02-08T19:35:47.756Z,97950.28
2024-02-08T19:39:50.890Z,97948.06
2024-02-08T19:43:52.602Z,97941.66
2024-02-08T19:47:54.319Z,97941.03
2024-02-08T19:51:56.198Z,97938.97
2024-02-08T19:55:59.554Z,97932.91
2024-02-08T20:00:01.233Z,97927.28
2024-02-08T20:04:03.392Z,97926.81
2024-02-08T20:08:05.688Z,97916.91
2024-02-08T20:12:09.348Z,97915.16
2024-02-08T20:16:11.102Z,97925.25
2024-02-08T20:20:13.371Z,97919.50
2024-02-08T20:24:16.276Z,97908.97
2024-02-08T20:28:19.353Z,97913.44
2024-02-08T20:32:21.513Z,97904.50
2024-02-08T20:36:23.652Z,97903.84
2024-02-08T20:40:25.691Z,97895.88
2024-02-08T20:44:28.862Z,97900.81
2024-02-08T20:48:30.617Z,97888.84
2024-02-08T20:52:33.095Z,97891.72
2024-02-08T20:56:34.738Z,97890.91
2024-02-08T21:00:39.400Z,97882.94
2024-02-08T21:04:42.304Z,97887.22
2024-02-08T21:08:44.164Z,97886.13
2024-02-08T21:12:45.893Z,97885.94
2024-02-08T21:16:49.111Z,97881.34
2024-02-08T21:20:50.979Z,97878.16
2024-02-08T21:24:52.886Z,97875.44
2024-02-08T21:28:54.855Z,97879.91
2024-02-08T21:32:57.848Z,97875.59
2024-02-08T21:36:59.521Z,97870.97
2024-02-08T21:41:03.261Z,97865.06
2024-02-08T21:45:07.159Z,97864.72
2024-02-08T21:49:10.693Z,97846.69
2024-02-08T21:53:12.551Z,97840.63
2024-02-08T21:57:14.440Z,97838.25
2024-02-08T22:01:38.389Z,97840.97
2024-02-08T22:05:42.718Z,97824.19
2024-02-08T22:09:46.712Z,97816.38
2024-02-08T22:13:48.581Z,97819.72
2024-02-08T22:17:51.774Z,97812.69
2024-02-08T22:21:54.910Z,97804.88
2024-02-08T22:25:56.904Z,97807.88
2024-02-08T22:29:58.999Z,97793.69
2024-02-08T22:34:00.766Z,97795.75
2024-02-08T22:38:04.265Z,97787.63
2024-02-08T22:42:06.128Z,97779.31
2024-02-08T22:46:08.186Z,97756.00
2024-02-08T22:50:11.218Z,97772.63
2024-02-08T22:54:16.925Z,97763.81
2024-02-08T22:58:22.725Z,97751.53
2024-02-08T23:02:25.934Z,97762.41
2024-02-08T23:06:27.803Z,97751.84
2024-02-08T23:10:30.885Z,97748.16
2024-02-08T23:14:32.894Z,97744.16
2024-02-08T23:18:34.909Z,97731.34
2024-02-08T23:22:36.859Z,97733.31
2024-02-08T23:26:39.984Z,97733.06
2024-02-08T23:30:41.672Z,97723.53
2024-02-08T23:34:43.380Z,97726.22
2024-02-08T23:38:45.015Z,97725.41
2024-02-08T23:42:49.039Z,97717.81
2024-02-08T23:46:50.773Z,97728.03
2024-02-08T23:50:52.406Z,97713.34
2024-02-08T23:54:54.071Z,97717.22
2024-02-08T23:58:57.063Z,97718.19
